Time;durP1;ratioP1;P1;durP2;ratioP2;P2;SDS_P1;SDS_P2;PMS_P1;PMS_P2;Temp;Humidity;BMP_temperature;BMP_pressure;BME280_temperature;BME280_humidity;BME280_pressure;Samples;Min_cycle;Max_cycle;Signal;HPM_P1;HPM_P2
2022/10/03 00:01:08;;;;;;;3.22;1.77;;;;;;;11.91;81.12;150646.73;1644706;84;21482;-75
2022/10/03 00:04:14;;;;;;;2.92;1.30;;;;;;;11.92;81.11;150649.33;1630774;85;21064;-75
2022/10/03 00:06:57;;;;;;;;;;;;;;;11.89;81.16;150642.81;1642331;84;21078;-75
2022/10/03 00:09:33;;;;;;;2.65;1.35;;;;;;;11.88;81.21;150640.22;1693285;84;20460;-73
2022/10/03 00:12:15;;;;;;;3.75;1.20;;;;;;;11.87;81.22;150636.34;1694048;83;21111;-75
2022/10/03 00:15:10;;;;;;;2.12;1.20;;;;;;;11.85;81.22;150632.44;1681524;83;21537;-61
2022/10/03 00:18:12;;;;;;;3.30;1.10;;;;;;;11.85;81.21;150631.16;1655908;84;21105;-75
2022/10/03 00:20:54;;;;;;;3.35;1.30;;;;;;;11.84;81.22;150628.56;1645065;86;21082;-77
2022/10/03 00:23:42;;;;;;;2.52;1.20;;;;;;;11.82;81.28;150623.31;1672548;84;21473;-61
2022/10/03 00:26:27;;;;;;;3.60;1.27;;;;;;;11.79;81.29;150616.86;1615904;86;21071;-61
2022/10/03 00:29:08;;;;;;;2.60;1.20;;;;;;;11.79;81.29;150616.86;1661973;84;21313;-60
2022/10/03 00:31:47;;;;;;;3.65;1.20;;;;;;;11.76;81.38;150609.06;1647686;84;21091;-60
2022/10/03 00:34:32;;;;;;;5.17;1.10;;;;;;;11.75;81.46;150607.75;1644417;86;21222;-61
2022/10/03 00:37:19;;;;;;;4.10;1.20;;;;;;;11.71;81.57;150597.38;1666111;84;21043;-61
2022/10/03 00:40:16;;;;;;;3.02;1.22;;;;;;;11.70;81.61;150594.78;1632111;86;20993;-61
2022/10/03 00:43:07;;;;;;;;;;;;;;;11.69;81.68;150590.86;1637504;87;21191;-75
2022/10/03 00:46:20;;;;;;;3.80;1.65;;;;;;;11.67;81.73;150585.66;1617895;86;20220;-76
2022/10/03 00:49:09;;;;;;;2.40;1.20;;;;;;;11.65;81.87;150581.80;1633414;86;21029;-60
2022/10/03 00:52:03;;;;;;;7.15;1.52;;;;;;;11.65;81.80;150581.80;1638652;86;20985;-61
2022/10/03 00:54:39;;;;;;;4.90;1.67;;;;;;;11.67;81.66;150586.98;1616162;86;21254;-60
2022/10/03 00:57:13;;;;;;;;;;;;;;;11.68;81.49;150588.25;1619854;86;21787;-76
2022/10/03 01:00:08;;;;;;;5.62;1.50;;;;;;;11.69;81.30;150592.17;1638316;86;20185;-76
2022/10/03 01:02:50;;;;;;;3.90;1.20;;;;;;;11.71;81.23;150596.05;1643786;83;21491;-75
2022/10/03 01:05:39;;;;;;;3.15;1.55;;;;;;;11.71;81.10;150597.38;1616153;86;21547;-76
2022/10/03 01:08:30;;;;;;;4.65;1.32;;;;;;;11.73;81.08;150602.56;1631315;86;21071;-74
2022/10/03 01:11:18;;;;;;;3.02;1.10;;;;;;;11.74;81.24;150605.16;1615581;86;21526;-74
2022/10/03 01:14:02;;;;;;;2.58;1.02;;;;;;;11.70;81.41;150594.78;1627914;86;21540;-76
2022/10/03 01:17:08;;;;;;;1.72;1.00;;;;;;;11.67;81.67;150586.98;1621720;86;21166;-74
2022/10/03 01:19:47;;;;;;;2.98;1.10;;;;;;;11.65;82.04;150580.47;1619882;86;21635;-76
2022/10/03 01:22:45;;;;;;;1.72;1.10;;;;;;;11.60;82.40;150568.78;1633336;86;21107;-61
2022/10/03 01:25:47;;;;;;;2.52;1.17;;;;;;;11.58;82.66;150563.58;1624621;86;21159;-61
2022/10/03 01:31:49;;;;;;;2.92;1.30;;;;;;;11.53;83.12;150550.61;1635510;85;21068;-75
2022/10/03 01:34:24;;;;;;;3.20;1.47;;;;;;;11.50;83.28;150544.14;1625998;87;21109;-75
2022/10/03 01:37:05;;;;;;;2.77;1.10;;;;;;;11.49;83.43;150540.22;1608110;87;21641;-61
2022/10/03 01:39:44;;;;;;;3.55;1.27;;;;;;;11.50;83.55;150542.81;1602398;87;21338;-60
2022/10/03 01:42:18;;;;;;;3.12;1.20;;;;;;;11.49;83.54;150541.50;1627758;87;21626;-75
2022/10/03 01:45:06;;;;;;;2.25;1.20;;;;;;;11.49;83.63;150540.22;1637624;87;21074;-61
2022/10/03 01:47:46;;;;;;;2.67;1.15;;;;;;;11.50;83.87;150542.81;1656941;86;21058;-60
2022/10/03 01:50:27;;;;;;;3.05;1.35;;;;;;;11.51;84.17;150545.42;1631635;86;21093;-61
2022/10/03 01:53:14;;;;;;;1.92;1.12;;;;;;;11.51;84.53;150545.42;1649721;84;21244;-74
2022/10/03 01:56:13;;;;;;;6.65;1.20;;;;;;;11.51;84.96;150545.42;1616188;87;21652;-60
2022/10/03 01:59:23;;;;;;;4.40;1.32;;;;;;;11.49;85.80;150540.22;1630466;86;21538;-76
2022/10/03 02:02:16;;;;;;;2.42;1.40;;;;;;;11.45;87.05;150532.44;1641117;86;21041;-75
2022/10/03 02:05:11;;;;;;;2.65;1.15;;;;;;;11.43;88.32;150527.25;1611502;86;21560;-76
2022/10/03 02:08:06;;;;;;;2.47;1.40;;;;;;;11.39;89.53;150516.88;1622132;86;21791;-76
2022/10/03 02:10:49;;;;;;;2.33;1.30;;;;;;;11.36;90.54;150509.05;1644448;86;21091;-75
2022/10/03 02:13:46;;;;;;;2.83;1.50;;;;;;;11.32;91.01;150498.66;1625011;86;21129;-74
2022/10/03 02:16:40;;;;;;;2.70;1.40;;;;;;;11.29;91.83;150490.88;1642338;86;21044;-74
2022/10/03 02:19:30;;;;;;;2.22;1.55;;;;;;;11.26;92.61;150483.09;1628202;86;21085;-75
2022/10/03 02:21:57;;;;;;;1.75;1.45;;;;;;;11.22;92.77;150474.00;1642989;86;21245;-77
2022/10/03 02:24:54;;;;;;;4.35;1.30;;;;;;;11.22;93.08;150472.72;1621475;87;21112;-77
2022/10/03 02:28:01;;;;;;;;;;;;;;;11.21;93.26;150471.41;1619243;87;22175;-75
2022/10/03 02:30:37;;;;;;;;;;;;;;;11.20;93.60;150467.53;1644532;86;20197;-76
2022/10/03 02:33:21;;;;;;;1.22;1.07;;;;;;;11.17;93.61;150462.34;1633242;87;20474;-61
2022/10/03 02:36:31;;;;;;;2.50;1.30;;;;;;;11.17;93.96;150461.02;1641639;87;21247;-60
2022/10/03 02:39:22;;;;;;;1.65;1.30;;;;;;;11.16;94.28;150458.44;1619458;87;21135;-60
2022/10/03 02:42:37;;;;;;;1.90;1.30;;;;;;;11.15;95.32;150457.11;1625413;86;21536;-60
2022/10/03 02:45:33;;;;;;;2.40;1.42;;;;;;;11.14;95.81;150454.52;1637703;86;21034;-60
2022/10/03 02:48:23;;;;;;;2.55;1.15;;;;;;;11.13;96.11;150450.64;1606067;87;21074;-60
2022/10/03 02:51:08;;;;;;;1.75;1.17;;;;;;;11.13;96.42;150450.64;1598732;88;21166;-60
2022/10/03 02:53:56;;;;;;;3.65;1.40;;;;;;;11.12;96.58;150449.33;1640159;86;20959;-60
2022/10/03 02:56:57;;;;;;;2.95;1.40;;;;;;;11.08;96.65;150438.94;1596306;87;21093;-60
2022/10/03 03:00:04;;;;;;;3.80;1.40;;;;;;;11.03;96.98;150427.25;1600897;88;21518;-61
2022/10/03 03:03:05;;;;;;;2.55;1.40;;;;;;;10.98;97.21;150414.28;1617254;86;21614;-60
2022/10/03 03:05:46;;;;;;;1.80;1.35;;;;;;;10.93;97.29;150400.00;1605416;88;21944;-61
2022/10/03 03:08:36;;;;;;;3.42;1.17;;;;;;;10.86;97.36;150384.44;1630321;86;21066;-61
2022/10/03 03:11:49;;;;;;;1.50;1.20;;;;;;;10.79;97.38;150366.28;1606722;88;21477;-61
2022/10/03 03:14:53;;;;;;;2.08;1.40;;;;;;;10.72;97.52;150349.39;1633060;86;21035;-61
2022/10/03 03:18:03;;;;;;;1.92;1.35;;;;;;;10.65;97.66;150331.23;1632825;86;21051;-61
2022/10/03 03:20:53;;;;;;;3.37;1.35;;;;;;;10.63;97.78;150324.73;1636156;86;21516;-75
2022/10/03 03:23:50;;;;;;;2.08;1.20;;;;;;;10.63;97.82;150324.73;1611707;88;21111;-61
2022/10/03 03:26:22;;;;;;;1.90;1.15;;;;;;;10.63;97.76;150324.73;1604114;88;21072;-61
2022/10/03 03:29:17;;;;;;;1.77;1.10;;;;;;;10.63;97.70;150326.05;1598906;88;21065;-61
2022/10/03 03:32:05;;;;;;;4.85;1.22;;;;;;;10.65;97.57;150331.23;1589449;88;26803;-61
2022/10/03 03:34:52;;;;;;;1.30;1.15;;;;;;;10.67;97.41;150335.09;1634879;86;21152;-62
2022/10/03 03:37:46;;;;;;;1.10;1.00;;;;;;;10.67;97.20;150335.09;1606294;87;21104;-60
2022/10/03 03:40:45;;;;;;;1.77;1.20;;;;;;;10.70;97.06;150342.88;1649455;84;21134;-61
2022/10/03 03:43:20;;;;;;;3.77;1.10;;;;;;;10.73;96.90;150350.72;1654690;85;21120;-60
2022/10/03 03:46:11;;;;;;;2.70;1.10;;;;;;;10.76;96.94;150358.50;1656347;86;21012;-60
2022/10/03 03:49:07;;;;;;;1.45;1.10;;;;;;;10.80;97.10;150367.55;1681189;84;21218;-60
2022/10/03 03:51:49;;;;;;;2.98;1.10;;;;;;;10.81;97.29;150371.47;1664856;85;21082;-61
2022/10/03 03:54:51;;;;;;;2.90;0.90;;;;;;;10.84;97.40;150377.97;1660699;86;21556;-61
2022/10/03 03:57:44;;;;;;;3.17;1.15;;;;;;;10.85;97.46;150380.56;1664126;85;21107;-61
2022/10/03 04:00:20;;;;;;;2.90;1.10;;;;;;;10.87;97.49;150385.75;1655626;86;22145;-61
2022/10/03 04:03:17;;;;;;;2.60;1.32;;;;;;;10.86;97.42;150384.44;1644937;85;21228;-75
2022/10/03 04:06:13;;;;;;;1.82;1.35;;;;;;;10.88;97.28;150389.63;1633492;86;21047;-73
2022/10/03 04:09:01;;;;;;;1.50;1.20;;;;;;;10.91;97.05;150394.80;1668592;84;21102;-75
2022/10/03 04:11:58;;;;;;;1.77;1.05;;;;;;;10.95;96.79;150405.22;1654399;84;21102;-76
2022/10/03 04:14:42;;;;;;;3.52;1.22;;;;;;;10.99;96.55;150416.87;1631337;86;21059;-73
2022/10/03 04:21:02;;;;;;;1.52;1.20;;;;;;;11.08;95.99;150437.67;1683400;84;21051;-75
2022/10/03 04:24:03;;;;;;;1.80;1.10;;;;;;;11.13;95.95;150450.64;1646668;85;21127;-75
2022/10/03 04:27:00;;;;;;;2.65;1.20;;;;;;;11.20;95.85;150468.81;1678970;84;21070;-74
2022/10/03 04:29:54;;;;;;;1.72;1.20;;;;;;;11.29;95.85;150492.20;1654234;85;21532;-73
2022/10/03 04:33:00;;;;;;;2.92;1.10;;;;;;;11.39;95.74;150516.88;1682749;83;21122;-75
2022/10/03 04:35:53;;;;;;;3.98;1.07;;;;;;;11.53;95.53;150550.61;1679366;83;20987;-74
2022/10/03 04:39:08;;;;;;;2.37;1.30;;;;;;;11.68;95.29;150589.58;1657059;84;21110;-75
2022/10/03 04:42:02;;;;;;;2.35;0.93;;;;;;;11.88;94.90;150638.94;1601579;87;21315;-75
2022/10/03 04:45:09;;;;;;;1.77;1.02;;;;;;;12.06;93.94;150683.16;1611891;87;21061;-73
2022/10/03 04:47:52;;;;;;;3.58;1.30;;;;;;;12.24;93.59;150729.89;1629434;87;21805;-75
2022/10/03 04:50:51;;;;;;;1.70;0.90;;;;;;;12.45;92.47;150781.88;1637128;86;21488;-74
2022/10/03 04:53:38;;;;;;;1.12;1.02;;;;;;;12.56;91.90;150809.16;1638443;86;21532;-75
2022/10/03 04:56:21;;;;;;;2.33;1.20;;;;;;;12.65;91.33;150831.25;1631380;87;21121;-74
2022/10/03 04:59:21;;;;;;;2.50;0.80;;;;;;;12.68;90.55;150839.05;1631433;87;21019;-74
2022/10/03 05:02:11;;;;;;;2.02;1.10;;;;;;;12.77;89.85;150861.16;1633063;87;21269;-75
2022/10/03 05:04:59;;;;;;;3.05;1.10;;;;;;;12.92;89.36;150900.16;1618728;86;21087;-74
2022/10/03 05:07:57;;;;;;;1.95;1.00;;;;;;;13.00;89.12;150919.66;1601035;87;21085;-76
2022/10/03 05:10:54;;;;;;;2.15;0.90;;;;;;;13.16;88.92;150959.95;1607038;87;21473;-75
2022/10/03 05:13:46;;;;;;;2.35;1.02;;;;;;;13.29;87.98;150993.78;1616554;86;21081;-75
2022/10/03 05:16:20;;;;;;;1.50;0.82;;;;;;;13.34;87.08;151005.44;1604797;87;21990;-76
2022/10/03 05:18:52;;;;;;;2.33;0.90;;;;;;;13.44;86.83;151031.52;1605505;87;21141;-74
2022/10/03 05:21:36;;;;;;;1.75;1.00;;;;;;;13.54;86.64;151056.23;1605592;87;21151;-75
2022/10/03 05:24:34;;;;;;;1.42;1.15;;;;;;;13.71;85.99;151097.86;1601565;87;21428;-73
2022/10/03 05:27:25;;;;;;;3.05;1.17;;;;;;;14.03;84.55;151179.77;1601419;87;21328;-75
2022/10/03 05:30:33;;;;;;;2.40;1.50;;;;;;;14.71;82.23;151349.00;1610131;87;21904;-73
2022/10/03 05:33:23;;;;;;;5.33;1.45;;;;;;;15.26;78.36;151488.30;1609452;87;21036;-75
2022/10/03 05:36:14;;;;;;;2.02;0.90;;;;;;;15.97;75.68;151666.72;1608762;87;21059;-75
2022/10/03 05:39:01;;;;;;;1.20;0.90;;;;;;;16.51;71.13;151802.25;1606156;86;21120;-73
2022/10/03 05:41:34;;;;;;;1.85;0.82;;;;;;;16.45;69.37;151787.91;1605846;87;21149;-75
2022/10/03 05:44:18;;;;;;;0.98;0.70;;;;;;;16.29;68.90;151747.52;1626877;85;21172;-73
2022/10/03 05:47:43;;;;;;;1.07;0.82;;;;;;;16.12;68.86;151703.22;1602811;87;21085;-75
2022/10/03 05:50:09;;;;;;;1.72;1.10;;;;;;;15.98;69.37;151669.33;1654240;85;21063;-76
2022/10/03 05:52:51;;;;;;;1.07;0.88;;;;;;;15.89;69.08;151645.91;1642466;85;21074;-75
2022/10/03 05:56:00;;;;;;;1.10;0.70;;;;;;;15.78;69.64;151617.17;1646750;85;22108;-75
2022/10/03 05:58:39;;;;;;;0.98;0.88;;;;;;;15.80;69.63;151622.38;1656150;85;21108;-73
2022/10/03 06:01:33;;;;;;;1.32;0.98;;;;;;;15.79;69.44;151619.78;1645172;85;22092;-75
2022/10/03 06:04:27;;;;;;;0.95;0.82;;;;;;;15.80;69.42;151622.38;1618689;86;21165;-76
2022/10/03 06:07:24;;;;;;;1.12;0.85;;;;;;;15.84;69.50;151632.84;1637468;85;21132;-75
2022/10/03 06:10:19;;;;;;;1.32;0.68;;;;;;;15.85;69.59;151636.72;1640215;85;21040;-62
2022/10/03 06:13:00;;;;;;;1.57;1.00;;;;;;;15.85;69.89;151635.44;1624194;86;21248;-62
2022/10/03 06:15:53;;;;;;;3.33;1.00;;;;;;;15.90;69.78;151648.50;1637439;87;21052;-62
2022/10/03 06:18:33;;;;;;;1.47;0.78;;;;;;;15.92;69.84;151653.70;1645544;85;21116;-61
2022/10/03 06:21:12;;;;;;;1.05;0.93;;;;;;;15.97;69.42;151666.72;1637409;85;21103;-61
2022/10/03 06:23:50;;;;;;;2.37;0.82;;;;;;;16.02;68.89;151679.73;1639926;85;21142;-62
2022/10/03 06:26:41;;;;;;;2.27;1.40;;;;;;;16.09;68.95;151696.69;1637106;87;21312;-62
2022/10/03 06:29:31;;;;;;;3.00;1.10;;;;;;;16.21;68.61;151726.64;1639952;85;21088;-63
2022/10/03 06:32:25;;;;;;;1.92;0.90;;;;;;;16.31;67.89;151752.72;1635343;85;21026;-61
2022/10/03 06:35:22;;;;;;;3.42;0.88;;;;;;;16.38;67.68;151768.34;1634622;85;21088;-61
2022/10/03 06:38:01;;;;;;;3.62;0.80;;;;;;;16.45;67.47;151787.91;1634962;85;21115;-61
2022/10/03 06:40:59;;;;;;;0.93;0.78;;;;;;;16.58;67.07;151820.47;1670024;84;21947;-75
2022/10/03 06:43:46;;;;;;;2.08;0.68;;;;;;;16.67;66.59;151841.31;1672589;84;20973;-76
2022/10/03 06:46:34;;;;;;;1.47;0.90;;;;;;;16.80;66.12;151875.22;1631223;85;21099;-75
2022/10/03 06:49:25;;;;;;;2.62;0.90;;;;;;;16.87;65.45;151893.44;1586859;86;21337;-61
2022/10/03 06:52:25;;;;;;;1.52;0.72;;;;;;;16.87;65.46;151893.44;1641612;86;21067;-61
2022/10/03 06:55:26;;;;;;;4.12;0.60;;;;;;;16.96;65.16;151914.33;1631384;86;21116;-62
2022/10/03 06:58:22;;;;;;;4.78;0.90;;;;;;;16.99;64.81;151922.19;1600249;87;21093;-61
2022/10/03 07:01:15;;;;;;;1.70;0.85;;;;;;;17.01;64.69;151927.41;1619385;86;28262;-61
2022/10/03 07:04:30;;;;;;;1.20;0.60;;;;;;;17.13;64.25;151958.70;1620315;86;22222;-61
2022/10/03 07:07:22;;;;;;;1.17;0.70;;;;;;;17.26;64.05;151989.97;1626833;86;21705;-62
2022/10/03 07:10:12;;;;;;;1.50;0.75;;;;;;;17.47;62.58;152044.72;1648201;85;21330;-62
2022/10/03 07:13:15;;;;;;;1.00;0.65;;;;;;;17.59;61.50;152073.44;1631532;87;21130;-62
2022/10/03 07:16:19;;;;;;;1.32;0.90;;;;;;;17.64;61.16;152085.14;1634940;86;21121;-62
2022/10/03 07:19:30;;;;;;;4.45;1.52;;;;;;;17.74;60.30;152111.25;1637953;86;21055;-60
2022/10/03 07:22:20;;;;;;;2.98;0.93;;;;;;;17.86;59.22;152141.25;1635870;86;21298;-62
2022/10/03 07:25:13;;;;;;;1.32;0.60;;;;;;;18.01;58.22;152180.39;1633693;86;21299;-62
2022/10/03 07:28:03;;;;;;;5.25;0.95;;;;;;;18.17;56.81;152219.53;1622813;86;21075;-63
2022/10/03 07:31:08;;;;;;;1.45;0.80;;;;;;;18.23;56.47;152235.17;1624683;86;21067;-61
2022/10/03 07:34:14;;;;;;;1.40;0.72;;;;;;;18.30;56.04;152253.47;1648551;85;21699;-61
2022/10/03 07:40:33;;;;;;;1.50;0.90;;;;;;;18.49;55.28;152300.44;1646509;84;21152;-61
2022/10/03 07:43:53;;;;;;;1.87;0.72;;;;;;;18.54;54.74;152313.48;1665319;84;21007;-61
2022/10/03 07:46:59;;;;;;;1.20;0.70;;;;;;;18.59;53.48;152326.52;1630275;86;21511;-61
2022/10/03 07:49:52;;;;;;;1.55;0.60;;;;;;;18.64;52.08;152336.95;1671835;84;21337;-74
2022/10/03 07:52:39;;;;;;;1.00;0.60;;;;;;;18.67;51.35;152346.09;1663824;84;21080;-75
2022/10/03 07:55:40;;;;;;;1.25;0.70;;;;;;;18.78;50.39;152372.17;1619681;86;22025;-75
2022/10/03 07:58:31;;;;;;;3.02;0.70;;;;;;;18.85;49.49;152391.75;1624389;86;21121;-73
2022/10/03 08:01:36;;;;;;;1.77;0.80;;;;;;;18.95;49.00;152415.28;1623313;87;21090;-75
2022/10/03 08:04:27;;;;;;;2.00;0.70;;;;;;;19.05;48.55;152441.41;1627215;87;21910;-75
2022/10/03 08:07:28;;;;;;;1.62;0.70;;;;;;;19.11;48.33;152455.78;1680516;83;21074;-61
2022/10/03 08:10:19;;;;;;;0.98;0.60;;;;;;;19.17;48.63;152472.77;1674502;84;21497;-62
2022/10/03 08:13:08;;;;;;;3.87;0.82;;;;;;;19.22;47.51;152484.47;1678022;83;37982;-60
2022/10/03 08:16:23;;;;;;;2.87;0.75;;;;;;;19.20;47.62;152479.25;1681569;84;21606;-61
2022/10/03 08:19:13;;;;;;;1.60;0.93;;;;;;;19.23;47.40;152485.80;1626731;86;21594;-61
2022/10/03 08:21:53;;;;;;;1.60;0.80;;;;;;;19.29;46.95;152501.45;1664149;84;21094;-63
2022/10/03 08:24:34;;;;;;;1.15;0.80;;;;;;;19.32;46.86;152510.61;1664868;84;21848;-61
2022/10/03 08:27:16;;;;;;;2.17;0.90;;;;;;;19.40;46.45;152528.88;1618709;86;21097;-61
2022/10/03 08:30:05;;;;;;;6.25;0.70;;;;;;;19.38;46.50;152524.98;1665072;83;21340;-61
2022/10/03 08:32:37;;;;;;;1.60;0.85;;;;;;;19.39;46.63;152527.59;1669350;83;21107;-61
2022/10/03 08:35:43;;;;;;;2.95;0.80;;;;;;;19.49;47.07;152551.06;1670949;84;21118;-63
2022/10/03 08:38:30;;;;;;;1.98;0.90;;;;;;;19.60;47.10;152579.81;1673520;84;21147;-62
2022/10/03 08:41:53;;;;;;;1.22;0.80;;;;;;;19.65;47.44;152592.86;1653285;84;21337;-62
2022/10/03 08:44:50;;;;;;;1.40;0.90;;;;;;;19.67;48.20;152596.75;1615740;86;20954;-62
2022/10/03 08:47:41;;;;;;;4.90;0.90;;;;;;;19.68;48.85;152600.69;1639430;85;21055;-61
2022/10/03 08:50:41;;;;;;;1.87;0.88;;;;;;;19.71;49.08;152607.23;1641877;85;21174;-61
2022/10/03 08:53:38;;;;;;;1.17;0.88;;;;;;;19.67;49.63;152596.75;1638146;85;21236;-74
2022/10/03 08:56:24;;;;;;;0.90;0.78;;;;;;;19.63;49.16;152587.64;1636354;85;21113;-76
2022/10/03 08:59:46;;;;;;;1.35;0.98;;;;;;;19.67;49.03;152598.08;1638959;85;21065;-76
2022/10/03 09:02:44;;;;;;;2.08;0.85;;;;;;;19.78;48.84;152624.17;1633255;85;21048;-74
2022/10/03 09:05:43;;;;;;;2.35;0.88;;;;;;;19.85;48.68;152642.48;1634429;85;21147;-76
2022/10/03 09:08:50;;;;;;;4.40;1.70;;;;;;;19.86;47.78;152645.09;1633051;85;22715;-79
2022/10/03 09:11:50;;;;;;;3.33;0.90;;;;;;;19.89;47.83;152652.92;1632783;85;21064;-76
2022/10/03 09:14:33;;;;;;;1.92;0.82;;;;;;;19.88;48.36;152650.31;1651899;85;21146;-76
2022/10/03 09:17:57;;;;;;;4.97;1.15;;;;;;;19.78;48.69;152625.50;1641968;85;21175;-76
2022/10/03 09:21:05;;;;;;;1.60;1.00;;;;;;;19.71;49.04;152607.23;1637184;85;21581;-74
2022/10/03 09:23:59;;;;;;;2.00;1.32;;;;;;;19.61;49.35;152583.70;1637181;85;21766;-76
2022/10/03 09:27:07;;;;;;;1.55;1.02;;;;;;;19.56;49.23;152569.33;1632981;85;21081;-76
2022/10/03 09:29:58;;;;;;;3.35;0.90;;;;;;;19.57;49.11;152573.27;1632278;85;21122;-73
2022/10/03 09:32:49;;;;;;;2.05;0.93;;;;;;;19.65;49.23;152592.86;1626503;85;21135;-76
2022/10/03 09:35:59;;;;;;;1.55;0.93;;;;;;;19.67;49.20;152598.08;1632640;85;21381;-77
2022/10/03 09:38:52;;;;;;;1.75;0.90;;;;;;;19.64;48.87;152588.92;1636554;85;21270;-74
2022/10/03 09:41:28;;;;;;;3.42;0.82;;;;;;;19.59;48.90;152577.20;1638185;85;21091;-78
2022/10/03 09:44:16;;;;;;;2.85;0.90;;;;;;;19.63;48.00;152587.64;1658111;84;21541;-76
2022/10/03 09:50:02;;;;;;;0.90;0.80;;;;;;;19.79;46.07;152628.11;1652561;84;21409;-75
2022/10/03 09:53:03;;;;;;;1.37;0.98;;;;;;;19.89;45.09;152652.92;1651793;84;21634;-76
2022/10/03 09:55:48;;;;;;;1.57;0.68;;;;;;;19.98;44.74;152676.47;1655098;85;21074;-75
2022/10/03 09:58:32;;;;;;;1.02;0.68;;;;;;;20.12;44.61;152710.44;1657708;85;21087;-77
2022/10/03 10:01:25;;;;;;;4.12;1.00;;;;;;;20.26;45.01;152745.70;1656099;84;21031;-77
2022/10/03 10:04:17;;;;;;;1.98;0.62;;;;;;;20.38;44.61;152777.08;1672528;84;21104;-76
2022/10/03 10:07:20;;;;;;;4.28;0.90;;;;;;;20.51;44.58;152809.73;1668659;84;21872;-77
2022/10/03 10:10:31;;;;;;;1.40;0.70;;;;;;;20.58;44.80;152828.00;1685343;84;21082;-74
2022/10/03 10:13:29;;;;;;;1.27;0.68;;;;;;;20.57;45.14;152825.39;1660507;84;21163;-77
2022/10/03 10:16:12;;;;;;;3.20;0.70;;;;;;;20.55;45.29;152818.84;1671681;84;21113;-78
2022/10/03 10:19:02;;;;;;;1.70;0.80;;;;;;;20.58;45.59;152828.00;1678483;83;22389;-74
2022/10/03 10:22:03;;;;;;;1.80;0.93;;;;;;;20.68;45.49;152851.55;1686421;84;21867;-77
2022/10/03 10:25:10;;;;;;;1.30;0.70;;;;;;;20.80;45.19;152882.94;1652950;84;21153;-76
2022/10/03 10:28:05;;;;;;;2.62;0.88;;;;;;;20.85;45.38;152895.98;1658400;85;21090;-74
2022/10/03 10:30:53;;;;;;;1.77;0.82;;;;;;;20.89;44.55;152906.48;1643290;85;21465;-76
2022/10/03 10:33:44;;;;;;;2.98;0.95;;;;;;;20.83;43.95;152890.77;1644704;85;21179;-78
2022/10/03 10:36:42;;;;;;;3.77;0.78;;;;;;;20.73;44.47;152864.61;1657876;84;21159;-74
2022/10/03 10:39:35;;;;;;;2.90;1.10;;;;;;;20.64;44.67;152841.06;1662479;83;21087;-75
2022/10/03 10:42:19;;;;;;;2.85;0.90;;;;;;;20.50;45.15;152807.13;1631816;86;21042;-75
2022/10/03 10:45:24;;;;;;;1.67;1.17;;;;;;;20.42;45.54;152787.52;1649985;84;21034;-75
2022/10/03 10:48:33;;;;;;;5.05;0.90;;;;;;;20.30;45.77;152757.47;1611085;87;21225;-74
2022/10/03 10:51:47;;;;;;;4.90;0.85;;;;;;;20.22;45.66;152736.55;1614366;88;21248;-76
2022/10/03 10:54:36;;;;;;;1.50;0.90;;;;;;;20.12;45.60;152711.77;1611795;87;21056;-74
2022/10/03 10:57:42;;;;;;;2.65;1.10;;;;;;;20.09;44.99;152703.89;1605835;88;21159;-75
2022/10/03 11:00:51;;;;;;;4.83;0.90;;;;;;;20.06;45.15;152694.78;1598060;87;21097;-79
2022/10/03 11:03:56;;;;;;;2.58;0.90;;;;;;;20.05;45.24;152693.45;1610185;87;21111;-76
2022/10/03 11:07:00;;;;;;;2.22;0.90;;;;;;;20.12;45.38;152710.44;1616877;87;22648;-77
2022/10/03 11:09:59;;;;;;;5.55;0.95;;;;;;;20.13;45.09;152714.37;1637877;85;21082;-78
2022/10/03 11:12:40;;;;;;;1.05;0.78;;;;;;;20.08;45.34;152700.00;1623249;87;21079;-76
2022/10/03 11:15:59;;;;;;;2.08;1.10;;;;;;;20.00;45.68;152681.69;1579513;88;21481;-78
2022/10/03 11:18:54;;;;;;;4.33;1.05;;;;;;;19.96;46.01;152671.25;1594786;88;21112;-78
2022/10/03 11:21:52;;;;;;;1.25;0.78;;;;;;;19.97;46.33;152673.86;1616745;88;21255;-77
2022/10/03 11:25:11;;;;;;;1.77;0.70;;;;;;;20.01;46.08;152683.02;1606831;87;21139;-80
2022/10/03 11:28:27;;;;;;;2.80;1.00;;;;;;;20.07;45.73;152697.39;1593224;87;21095;-79
2022/10/03 11:31:27;;;;;;;1.35;0.80;;;;;;;20.12;45.30;152711.77;1603713;87;21534;-79
2022/10/03 11:34:39;;;;;;;2.05;0.85;;;;;;;20.10;44.13;152705.22;1618683;87;21093;-77
2022/10/03 11:37:44;;;;;;;4.03;0.80;;;;;;;20.05;43.69;152693.45;1597486;87;21128;-79
2022/10/03 11:40:39;;;;;;;2.45;1.05;;;;;;;20.04;43.72;152692.17;1612968;87;21119;-79
2022/10/03 11:43:36;;;;;;;2.77;1.22;;;;;;;20.06;44.40;152694.78;1611725;86;21769;-79
2022/10/03 11:46:26;;;;;;;3.98;1.22;;;;;;;20.10;44.69;152705.22;1670593;84;21097;-79
2022/10/03 11:49:37;;;;;;;3.35;0.78;;;;;;;20.10;44.72;152705.22;1664354;84;21091;-63
2022/10/03 11:52:31;;;;;;;2.00;0.90;;;;;;;20.12;44.89;152711.77;1631222;86;21287;-61
2022/10/03 11:55:32;;;;;;;6.05;1.40;;;;;;;20.16;45.18;152720.88;1608411;87;20967;-60
2022/10/03 11:58:33;;;;;;;5.37;1.20;;;;;;;20.04;46.72;152692.17;1611339;87;20925;-61
2022/10/03 12:01:27;;;;;;;4.15;1.25;;;;;;;19.70;47.76;152605.91;1596377;88;21124;-62
2022/10/03 12:04:32;;;;;;;3.95;1.20;;;;;;;19.33;48.98;152511.89;1634696;85;21091;-61
2022/10/03 12:10:39;;;;;;;7.22;1.40;;;;;;;18.75;51.08;152365.69;1603008;86;21068;-61
2022/10/03 12:13:15;;;;;;;3.27;1.47;;;;;;;18.52;52.31;152308.27;1617989;86;21263;-62
2022/10/03 12:15:50;;;;;;;2.08;1.22;;;;;;;18.33;53.15;152261.28;1630216;85;22228;-60
2022/10/03 12:18:45;;;;;;;4.15;1.75;;;;;;;18.20;53.81;152226.08;1636475;86;21078;-60
2022/10/03 12:21:27;;;;;;;3.98;1.30;;;;;;;18.12;53.42;152207.78;1635850;85;21151;-61
2022/10/03 12:24:02;;;;;;;3.20;1.10;;;;;;;18.01;53.31;152180.39;1633983;86;21070;-62
2022/10/03 12:27:07;;;;;;;5.67;1.67;;;;;;;17.90;53.14;152151.67;1638003;86;20876;-62
2022/10/03 12:29:37;;;;;;;3.47;1.12;;;;;;;17.83;53.69;152133.42;1638392;85;21106;-62
2022/10/03 12:32:33;;;;;;;2.47;1.37;;;;;;;17.83;53.81;152133.42;1634509;85;21123;-61
2022/10/03 12:35:28;;;;;;;3.55;1.35;;;;;;;17.82;53.41;152130.81;1637230;86;21849;-62
2022/10/03 12:38:26;;;;;;;2.47;1.30;;;;;;;17.84;53.35;152136.03;1633292;85;21596;-61
2022/10/03 12:41:01;;;;;;;2.80;1.60;;;;;;;17.91;53.24;152154.28;1640577;86;21055;-62
2022/10/03 12:43:55;;;;;;;2.70;1.15;;;;;;;17.96;53.11;152166.03;1614391;86;21099;-60
2022/10/03 12:46:43;;;;;;;4.53;1.20;;;;;;;17.97;52.88;152169.91;1639318;86;21127;-61
2022/10/03 12:49:21;;;;;;;6.22;1.57;;;;;;;18.03;52.73;152185.66;1638070;86;21170;-62
2022/10/03 12:51:59;;;;;;;2.90;1.07;;;;;;;18.06;52.77;152192.14;1649097;84;21162;-61
2022/10/03 12:54:48;;;;;;;2.72;1.10;;;;;;;18.10;52.55;152202.56;1622131;87;21553;-62
2022/10/03 12:58:09;;;;;;;2.67;1.20;;;;;;;18.11;52.82;152203.89;1673747;83;22204;-62
2022/10/03 13:00:57;;;;;;;4.75;1.32;;;;;;;18.16;53.23;152218.25;1672780;84;21081;-62
2022/10/03 13:03:37;;;;;;;1.77;1.07;;;;;;;18.28;53.65;152248.25;1668385;84;22181;-61
2022/10/03 13:06:36;;;;;;;3.92;1.50;;;;;;;18.32;53.05;152258.69;1674801;84;21036;-61
2022/10/03 13:09:28;;;;;;;6.53;1.30;;;;;;;18.33;52.99;152261.28;1665873;84;21456;-61
2022/10/03 13:12:06;;;;;;;3.27;1.10;;;;;;;18.35;53.04;152263.91;1671456;84;21120;-60
2022/10/03 13:15:14;;;;;;;2.98;1.05;;;;;;;18.33;52.48;152259.97;1672819;83;21515;-60
2022/10/03 13:17:51;;;;;;;1.95;0.98;;;;;;;18.29;52.24;152249.53;1629793;84;21901;-60
2022/10/03 13:20:26;;;;;;;2.45;1.10;;;;;;;18.24;52.59;152237.83;1664452;84;21062;-62
2022/10/03 13:23:27;;;;;;;5.45;1.12;;;;;;;18.18;52.59;152222.14;1675123;84;21061;-60
2022/10/03 13:26:12;;;;;;;5.40;1.20;;;;;;;18.12;52.79;152206.50;1664033;84;21089;-61
2022/10/03 13:28:45;;;;;;;;;;;;;;;18.09;52.88;152198.69;1651464;84;21100;-61
2022/10/03 13:31:25;;;;;;;4.10;1.20;;;;;;;18.04;52.95;152188.25;1644341;84;21892;-61
2022/10/03 13:33:55;;;;;;;14.25;2.15;;;;;;;18.01;52.84;152180.39;1672193;83;21578;-61
2022/10/03 13:36:31;;;;;;;5.42;1.20;;;;;;;17.96;52.81;152167.31;1673864;84;21558;-59
2022/10/03 13:39:08;;;;;;;2.75;1.00;;;;;;;17.93;52.89;152159.48;1668582;84;21625;-61
2022/10/03 13:41:46;;;;;;;4.10;1.22;;;;;;;17.90;52.70;152151.67;1669931;84;21411;-60